Time;durP1;ratioP1;P1;durP2;ratioP2;P2;SDS_P1;SDS_P2;PMS_P1;PMS_P2;Temp;Humidity;BMP_temperature;BMP_pressure;BME280_temperature;BME280_humidity;BME280_pressure;Samples;Min_cycle;Max_cycle;Signal;HPM_P1;HPM_P2
2021/01/27 00:00:47;;;;;;;8.00;6.42;;;;;;;3.49;77.70;100660.48;1780002;80;21155;-53
2021/01/27 00:03:16;;;;;;;10.25;7.47;;;;;;;3.48;77.83;100649.77;1779803;80;21148;-48
2021/01/27 00:05:48;;;;;;;10.10;7.35;;;;;;;3.47;77.89;100650.19;1784512;80;21272;-51
2021/01/27 00:08:16;;;;;;;8.30;7.25;;;;;;;3.48;77.96;100654.92;1776057;80;21140;-56
2021/01/27 00:10:44;;;;;;;8.25;7.33;;;;;;;3.48;78.00;100648.48;1775869;80;21128;-51
2021/01/27 00:13:16;;;;;;;8.55;7.47;;;;;;;3.48;78.02;100653.22;1774920;80;21297;-53
2021/01/27 00:15:44;;;;;;;;;;;;;;;3.47;78.08;100641.19;1776723;80;21186;-55
2021/01/27 00:18:16;;;;;;;10.03;7.28;;;;;;;3.47;78.07;100645.47;1774692;80;20140;-52
2021/01/27 00:20:44;;;;;;;8.48;7.30;;;;;;;3.45;78.12;100644.59;1770780;80;21598;-49
2021/01/27 00:23:12;;;;;;;9.53;8.08;;;;;;;3.46;78.26;100641.19;1777435;80;21140;-52
2021/01/27 00:25:41;;;;;;;9.58;8.03;;;;;;;3.46;78.11;100636.91;1777955;80;21560;-48
2021/01/27 00:28:09;;;;;;;9.08;7.22;;;;;;;3.45;78.05;100625.31;1777814;80;21306;-52
2021/01/27 00:30:41;;;;;;;9.28;7.58;;;;;;;3.41;78.01;100615.86;1778731;80;21293;-48
2021/01/27 00:33:13;;;;;;;8.30;7.35;;;;;;;3.38;78.16;100615.86;1787691;80;21290;-52
2021/01/27 00:35:45;;;;;;;9.55;8.18;;;;;;;3.38;78.31;100612.00;1774382;80;21548;-49
2021/01/27 00:38:25;;;;;;;8.68;7.58;;;;;;;3.38;78.31;100621.00;1774159;80;21146;-50
2021/01/27 00:40:54;;;;;;;11.78;8.53;;;;;;;3.37;78.28;100624.41;1774136;80;21167;-52
2021/01/27 00:43:23;;;;;;;9.85;8.03;;;;;;;3.36;78.29;100613.25;1775937;80;21151;-48
2021/01/27 00:45:52;;;;;;;8.63;7.05;;;;;;;3.36;78.40;100617.56;1777482;80;21171;-47
2021/01/27 00:48:21;;;;;;;10.30;7.42;;;;;;;3.34;78.51;100606.41;1777993;80;21564;-50
2021/01/27 00:50:49;;;;;;;11.45;8.88;;;;;;;3.37;78.63;100612.84;1777703;80;21559;-52
2021/01/27 00:53:17;;;;;;;11.22;8.53;;;;;;;3.39;78.43;100618.43;1747965;80;21186;-47
2021/01/27 00:55:47;;;;;;;9.53;8.05;;;;;;;3.38;78.45;100608.98;1776950;80;21139;-46
2021/01/27 00:58:16;;;;;;;10.28;8.10;;;;;;;3.38;78.58;100613.28;1779103;80;21187;-49
2021/01/27 01:00:46;;;;;;;12.40;8.45;;;;;;;3.36;78.61;100596.54;1780178;80;21540;-48
2021/01/27 01:03:25;;;;;;;9.85;8.18;;;;;;;3.38;78.56;100590.14;1779688;80;21433;-51
2021/01/27 01:05:53;;;;;;;10.53;7.83;;;;;;;3.37;78.53;100585.84;1778701;80;21108;-51
2021/01/27 01:08:22;;;;;;;12.25;8.48;;;;;;;3.35;78.55;100581.11;1776582;80;21142;-48
2021/01/27 01:10:53;;;;;;;11.10;9.08;;;;;;;3.35;78.66;100570.83;1778822;80;21154;-52
2021/01/27 01:13:24;;;;;;;10.10;8.28;;;;;;;3.34;78.54;100564.81;1779314;80;21136;-46
2021/01/27 01:15:52;;;;;;;11.18;8.05;;;;;;;3.33;78.53;100554.53;1779751;80;21139;-46
2021/01/27 01:18:20;;;;;;;11.38;8.48;;;;;;;3.34;78.56;100548.09;1779938;80;21580;-51
2021/01/27 01:20:48;;;;;;;9.50;8.15;;;;;;;3.30;78.57;100540.80;1778416;80;21163;-54
2021/01/27 01:23:20;;;;;;;11.60;7.97;;;;;;;3.28;78.57;100533.52;1776012;80;21143;-46
2021/01/27 01:25:49;;;;;;;12.98;8.53;;;;;;;3.26;78.60;100542.93;1776842;80;21135;-47
2021/01/27 01:28:18;;;;;;;10.88;8.28;;;;;;;3.25;78.73;100542.52;1776502;80;21572;-50
2021/01/27 01:30:47;;;;;;;11.90;9.23;;;;;;;3.22;78.72;100539.05;1772924;80;21159;-45
2021/01/27 01:33:20;;;;;;;11.43;7.45;;;;;;;3.19;78.80;100536.03;1775479;80;21135;-49
2021/01/27 01:35:50;;;;;;;11.28;7.67;;;;;;;3.19;78.89;100535.20;1779876;80;21189;-45
2021/01/27 01:38:18;;;;;;;9.65;7.72;;;;;;;3.19;78.97;100530.89;1779582;80;21167;-46
2021/01/27 01:40:54;;;;;;;10.55;7.70;;;;;;;3.19;78.97;100512.89;1768278;80;21139;-46
2021/01/27 01:43:31;;;;;;;10.43;7.60;;;;;;;3.21;79.02;100516.78;1775227;80;21174;-46
2021/01/27 01:46:03;;;;;;;9.10;7.60;;;;;;;3.24;78.78;100511.21;1773481;80;21131;-47
2021/01/27 01:48:36;;;;;;;9.45;7.45;;;;;;;3.13;79.20;100501.75;1730748;83;21167;-47
2021/01/27 01:51:55;;;;;;;9.55;7.20;;;;;;;3.10;79.47;100500.02;1718714;83;21361;-49
2021/01/27 01:54:34;;;;;;;7.70;6.85;;;;;;;3.09;79.49;100506.45;1710571;83;21737;-48
2021/01/27 01:57:18;;;;;;;8.10;6.95;;;;;;;3.10;79.32;100497.45;1771082;79;22809;-48
2021/01/27 01:59:55;;;;;;;9.43;7.28;;;;;;;3.04;79.38;100501.70;1729874;82;21168;-49
2021/01/27 02:02:24;;;;;;;9.78;7.58;;;;;;;3.00;79.52;100505.97;1634350;86;21200;-48
2021/01/27 02:04:59;;;;;;;8.48;6.90;;;;;;;2.99;79.57;100504.24;1620940;86;21329;-48
2021/01/27 02:07:33;;;;;;;7.53;6.30;;;;;;;3.03;79.49;100494.86;1769562;79;22946;-47
2021/01/27 02:10:05;;;;;;;7.62;6.45;;;;;;;2.96;79.60;100495.25;1740468;82;21310;-46
2021/01/27 02:13:10;;;;;;;8.10;6.45;;;;;;;2.95;79.74;100492.23;1751739;81;21215;-46
2021/01/27 02:16:10;;;;;;;7.30;5.60;;;;;;;2.97;79.75;100485.39;1774206;79;23125;-45
2021/01/27 02:19:03;;;;;;;8.20;5.97;;;;;;;2.93;79.82;100493.94;1744678;81;21212;-46
2021/01/27 02:22:14;;;;;;;7.65;6.30;;;;;;;2.90;79.88;100486.64;1737904;82;21173;-46
2021/01/27 02:24:51;;;;;;;8.50;5.90;;;;;;;2.89;79.82;100484.49;1741719;82;21132;-45
2021/01/27 02:27:24;;;;;;;6.50;5.80;;;;;;;2.88;79.85;100485.36;1720675;82;21144;-47
2021/01/27 02:30:26;;;;;;;7.08;6.10;;;;;;;2.88;79.87;100494.36;1660284;85;21684;-47
2021/01/27 02:33:16;;;;;;;;;;;;;;;2.86;79.89;100474.22;1674295;85;21180;-49
2021/01/27 02:36:18;;;;;;;7.83;6.22;;;;;;;2.85;79.89;100472.48;1659598;86;20427;-47
2021/01/27 02:39:10;;;;;;;7.33;5.72;;;;;;;2.89;80.08;100475.50;1804115;79;22404;-48
2021/01/27 02:41:49;;;;;;;8.55;6.72;;;;;;;2.85;80.13;100477.63;1786752;80;21302;-46
2021/01/27 02:44:20;;;;;;;6.45;5.60;;;;;;;2.84;80.07;100475.92;1788692;80;21556;-46
2021/01/27 02:46:53;;;;;;;7.10;6.35;;;;;;;2.83;80.01;100478.04;1786412;80;21142;-49
2021/01/27 02:49:45;;;;;;;7.53;5.67;;;;;;;2.82;80.00;100484.47;1792939;80;21387;-46
2021/01/27 02:52:20;;;;;;;7.12;6.03;;;;;;;2.83;79.98;100479.33;1792068;80;21313;-45
2021/01/27 02:55:11;;;;;;;6.95;5.67;;;;;;;2.85;79.91;100490.47;1712596;83;21145;-46
2021/01/27 02:58:03;;;;;;;6.10;5.50;;;;;;;2.87;79.75;100483.63;1705844;84;21611;-46
2021/01/27 03:00:37;;;;;;;;;;;;;;;2.89;79.79;100479.36;1665463;86;21183;-45
2021/01/27 03:03:25;;;;;;;7.45;6.03;;;;;;;2.95;79.82;100474.23;1766516;79;22937;-51
2021/01/27 03:06:02;;;;;;;6.10;5.42;;;;;;;2.92;79.54;100478.09;1744395;82;21121;-45
2021/01/27 03:08:35;;;;;;;6.67;5.30;;;;;;;2.93;79.29;100474.66;1743908;82;21148;-44
2021/01/27 03:11:16;;;;;;;8.13;5.33;;;;;;;2.90;79.27;100466.09;1663140;85;21199;-44
2021/01/27 03:13:45;;;;;;;6.72;5.58;;;;;;;2.89;79.40;100478.06;1663536;86;21202;-45
2021/01/27 03:16:17;;;;;;;5.97;5.37;;;;;;;2.89;79.41;100478.06;1662919;86;21180;-45
2021/01/27 03:19:12;;;;;;;6.92;5.67;;;;;;;2.95;79.29;100461.39;1768186;79;23104;-45
2021/01/27 03:21:49;;;;;;;6.30;5.05;;;;;;;2.89;79.15;100453.66;1736162;82;21128;-50
2021/01/27 03:24:20;;;;;;;7.30;5.92;;;;;;;2.89;79.12;100460.50;1734718;82;21609;-45
2021/01/27 03:27:12;;;;;;;7.10;5.33;;;;;;;2.85;79.16;100454.50;1741213;82;21734;-49
2021/01/27 03:29:51;;;;;;;7.15;5.65;;;;;;;2.85;79.31;100451.06;1736547;82;21144;-45
2021/01/27 03:32:40;;;;;;;6.22;5.58;;;;;;;2.85;79.24;100450.64;1733199;82;21153;-49
2021/01/27 03:35:23;;;;;;;9.90;6.62;;;;;;;2.85;79.51;100439.08;1743404;80;21140;-44
2021/01/27 03:38:02;;;;;;;6.05;5.25;;;;;;;2.84;79.43;100438.66;1735093;82;21184;-44
2021/01/27 03:40:31;;;;;;;7.37;5.90;;;;;;;2.87;79.37;100432.66;1734868;82;21373;-45
2021/01/27 03:43:22;;;;;;;6.67;5.83;;;;;;;2.87;79.31;100429.66;1724534;82;21783;-46
2021/01/27 03:46:18;;;;;;;7.47;5.85;;;;;;;2.91;79.37;100439.10;1769516;79;22884;-44
2021/01/27 03:48:58;;;;;;;7.25;6.12;;;;;;;2.87;79.25;100436.09;1736955;82;21192;-51
2021/01/27 03:51:29;;;;;;;7.80;6.15;;;;;;;2.88;79.25;100440.81;1734378;82;21117;-45
2021/01/27 03:54:00;;;;;;;7.80;6.37;;;;;;;2.83;79.48;100439.92;1741200;82;21121;-45
2021/01/27 03:56:40;;;;;;;7.42;6.33;;;;;;;2.77;79.78;100440.76;1721067;82;21743;-44
2021/01/27 03:59:13;;;;;;;8.38;6.22;;;;;;;2.77;79.79;100438.61;1709747;83;21297;-44
2021/01/27 04:01:53;;;;;;;7.37;5.97;;;;;;;2.76;79.90;100436.45;1676672;85;21333;-45
2021/01/27 04:04:27;;;;;;;8.28;6.33;;;;;;;2.82;79.87;100436.52;1810016;79;22844;-52
2021/01/27 04:06:55;;;;;;;7.53;6.28;;;;;;;2.76;79.82;100445.45;1783650;80;21588;-46
2021/01/27 04:09:24;;;;;;;8.73;6.22;;;;;;;2.74;79.88;100430.45;1776921;80;21294;-46
2021/01/27 04:11:52;;;;;;;7.20;5.53;;;;;;;2.72;79.94;100427.02;1776988;80;21144;-45
2021/01/27 04:14:21;;;;;;;9.75;6.37;;;;;;;2.70;80.08;100426.16;1773097;80;21171;-46
2021/01/27 04:16:49;;;;;;;8.33;7.15;;;;;;;2.69;80.21;100428.30;1780195;80;21599;-45
2021/01/27 04:19:18;;;;;;;9.80;6.67;;;;;;;2.68;80.23;100417.58;1779506;80;21298;-44
2021/01/27 04:21:46;;;;;;;7.50;5.85;;;;;;;2.69;80.31;100419.31;1770231;80;21192;-44
2021/01/27 04:24:14;;;;;;;8.23;6.78;;;;;;;2.67;80.44;100410.74;1778764;80;21306;-45
2021/01/27 04:26:43;;;;;;;9.10;7.08;;;;;;;2.67;80.50;100399.19;1774503;80;21294;-45
2021/01/27 04:29:12;;;;;;;7.28;6.17;;;;;;;2.67;80.46;100400.47;1780426;80;21285;-44
2021/01/27 04:31:40;;;;;;;7.70;6.10;;;;;;;2.66;80.56;100403.04;1772325;80;21152;-51
2021/01/27 04:34:08;;;;;;;6.37;5.60;;;;;;;2.66;80.59;100387.62;1773195;80;21155;-52
2021/01/27 04:36:37;;;;;;;9.95;6.53;;;;;;;2.65;80.55;100380.34;1779946;80;21294;-45
2021/01/27 04:39:07;;;;;;;7.60;6.28;;;;;;;2.64;80.67;100394.02;1778509;80;21569;-46
2021/01/27 04:41:36;;;;;;;8.78;6.25;;;;;;;2.63;80.71;100375.63;1776398;80;21631;-46
2021/01/27 04:44:05;;;;;;;7.78;5.85;;;;;;;2.63;80.72;100370.48;1779951;80;21278;-46
2021/01/27 04:46:36;;;;;;;8.38;6.35;;;;;;;2.63;80.67;100383.33;1778303;80;21172;-46
2021/01/27 04:49:25;;;;;;;7.78;5.67;;;;;;;2.62;80.73;100384.16;1776749;80;21184;-46
2021/01/27 04:52:14;;;;;;;9.13;6.70;;;;;;;2.62;80.92;100364.06;1778466;80;21184;-48
2021/01/27 04:55:12;;;;;;;8.58;5.87;;;;;;;2.63;80.83;100365.34;1684240;84;21620;-48
2021/01/27 04:58:14;;;;;;;7.72;5.80;;;;;;;2.63;80.83;100380.76;1802127;79;23056;-48
2021/01/27 05:01:12;;;;;;;8.55;6.12;;;;;;;2.58;80.90;100367.48;1784953;80;21159;-48
2021/01/27 05:04:10;;;;;;;8.33;6.35;;;;;;;2.56;81.04;100365.30;1793126;80;21711;-49
2021/01/27 05:06:42;;;;;;;9.85;6.00;;;;;;;2.54;81.09;100374.28;1684254;85;21164;-48
2021/01/27 05:09:32;;;;;;;7.78;6.28;;;;;;;2.53;81.08;100355.89;1686751;85;21227;-54
2021/01/27 05:12:02;;;;;;;9.33;6.50;;;;;;;2.51;81.10;100357.59;1684471;85;21267;-54
2021/01/27 05:14:31;;;;;;;8.45;6.90;;;;;;;2.47;81.18;100350.73;1686791;85;21144;-50
2021/01/27 05:17:01;;;;;;;7.72;6.30;;;;;;;2.47;81.25;100356.70;1680908;85;21232;-51
2021/01/27 05:19:30;;;;;;;8.37;6.77;;;;;;;2.45;81.37;100340.43;1687071;85;21156;-49
2021/01/27 05:21:58;;;;;;;8.65;6.92;;;;;;;2.47;81.39;100344.31;1686620;85;21458;-49
2021/01/27 05:24:28;;;;;;;8.90;7.03;;;;;;;2.45;81.31;100347.30;1686752;85;21205;-49
2021/01/27 05:27:14;;;;;;;9.03;6.15;;;;;;;2.46;81.37;100350.28;1686848;85;21168;-49
2021/01/27 05:30:07;;;;;;;6.87;6.17;;;;;;;2.45;81.44;100342.16;1686899;85;21195;-47
2021/01/27 05:32:49;;;;;;;;;;;;;;;2.44;81.47;100351.98;1689427;85;21208;-48
2021/01/27 05:35:31;;;;;;;8.10;6.50;;;;;;;2.47;81.44;100343.86;1810202;79;22968;-49
2021/01/27 05:38:00;;;;;;;8.40;6.83;;;;;;;2.42;81.41;100343.42;1777635;80;21151;-49
2021/01/27 05:40:35;;;;;;;7.80;6.55;;;;;;;2.41;81.44;100334.85;1776790;80;21149;-49
2021/01/27 05:43:18;;;;;;;9.43;7.50;;;;;;;2.41;81.47;100339.98;1770143;80;21151;-48
2021/01/27 05:45:48;;;;;;;8.90;6.35;;;;;;;2.40;81.59;100332.28;1776703;80;21195;-48
2021/01/27 05:48:29;;;;;;;7.65;6.62;;;;;;;2.52;81.18;100338.75;1781511;80;21136;-52
2021/01/27 05:51:08;;;;;;;7.62;6.53;;;;;;;2.54;81.07;100339.61;1773335;80;21151;-47
2021/01/27 05:53:37;;;;;;;8.18;6.65;;;;;;;2.55;80.89;100341.34;1776844;80;21306;-52
2021/01/27 05:56:17;;;;;;;7.20;6.22;;;;;;;2.56;80.86;100340.48;1773049;80;21206;-47
2021/01/27 05:59:04;;;;;;;7.17;5.45;;;;;;;2.59;80.76;100337.94;1773289;80;21184;-47
2021/01/27 06:01:45;;;;;;;8.35;6.12;;;;;;;2.60;80.71;100339.64;1773012;80;21200;-48
2021/01/27 06:04:24;;;;;;;8.15;5.87;;;;;;;2.60;80.52;100328.08;1773329;80;21151;-48
2021/01/27 06:06:57;;;;;;;8.08;5.90;;;;;;;2.60;80.38;100338.35;1773238;80;21145;-48
2021/01/27 06:09:35;;;;;;;6.78;5.60;;;;;;;2.68;80.11;100337.95;1773086;80;21143;-49
2021/01/27 06:12:15;;;;;;;6.53;5.25;;;;;;;2.70;79.98;100340.09;1772824;80;21199;-47
2021/01/27 06:14:44;;;;;;;6.10;5.42;;;;;;;2.67;79.80;100332.81;1697358;84;21620;-51
2021/01/27 06:17:30;;;;;;;8.83;6.10;;;;;;;2.67;79.88;100333.68;1702700;84;21651;-49
2021/01/27 06:20:18;;;;;;;6.70;5.60;;;;;;;2.67;80.00;100325.11;1702697;84;21624;-52
2021/01/27 06:23:24;;;;;;;7.65;6.33;;;;;;;2.65;80.16;100321.27;1696647;84;21224;-49
2021/01/27 06:26:32;;;;;;;7.45;5.70;;;;;;;2.62;79.88;100317.38;1703454;84;21252;-50
2021/01/27 06:29:26;;;;;;;7.42;5.15;;;;;;;2.61;79.95;100315.68;1695510;84;21636;-51
2021/01/27 06:32:11;;;;;;;7.70;5.62;;;;;;;2.62;80.09;100290.86;1771590;79;23519;-48
2021/01/27 06:35:02;;;;;;;8.33;5.97;;;;;;;2.55;80.14;100272.00;1728589;82;21298;-49
2021/01/27 06:38:00;;;;;;;8.33;5.83;;;;;;;2.54;80.10;100265.14;1739538;82;21286;-48
2021/01/27 06:41:10;;;;;;;9.50;5.78;;;;;;;2.51;80.29;100254.88;1732895;81;21164;-51
2021/01/27 06:43:59;;;;;;;9.65;6.30;;;;;;;2.52;80.50;100233.45;1732335;80;21282;-51
2021/01/27 06:47:06;;;;;;;9.23;6.03;;;;;;;2.54;80.66;100230.47;1689189;84;21171;-51
2021/01/27 06:50:06;;;;;;;8.45;6.03;;;;;;;2.54;80.70;100236.89;1685863;84;21254;-50
2021/01/27 06:52:55;;;;;;;6.70;4.85;;;;;;;2.56;80.67;100240.31;1688004;84;21679;-49
2021/01/27 06:56:01;;;;;;;7.40;5.25;;;;;;;2.63;80.53;100261.32;1820014;77;23079;-48
2021/01/27 06:58:41;;;;;;;7.47;5.87;;;;;;;2.58;80.60;100258.32;1818119;78;21302;-51
2021/01/27 07:01:31;;;;;;;7.10;5.20;;;;;;;2.60;80.48;100252.77;1727847;83;21624;-50
2021/01/27 07:04:40;;;;;;;9.28;6.05;;;;;;;2.64;80.53;100227.52;1810033;79;22512;-50
2021/01/27 07:07:25;;;;;;;6.72;5.25;;;;;;;2.54;80.58;100229.19;1710910;83;21682;-50
2021/01/27 07:10:22;;;;;;;6.70;5.95;;;;;;;2.56;80.53;100244.17;1711391;83;21161;-49
2021/01/27 07:12:59;;;;;;;7.40;5.72;;;;;;;2.58;80.40;100254.02;1687063;83;21445;-50
2021/01/27 07:16:02;;;;;;;7.92;5.87;;;;;;;2.63;80.48;100257.47;1771486;79;23107;-50
2021/01/27 07:18:56;;;;;;;7.35;5.70;;;;;;;2.57;80.54;100272.00;1737955;82;21987;-49
2021/01/27 07:21:29;;;;;;;6.12;5.00;;;;;;;2.58;80.50;100265.58;1734401;82;21279;-50
2021/01/27 07:24:13;;;;;;;7.20;5.30;;;;;;;2.58;80.41;100261.72;1737449;82;21133;-51
2021/01/27 07:26:57;;;;;;;7.25;5.55;;;;;;;2.59;80.47;100271.16;1733993;82;21286;-49
2021/01/27 07:29:37;;;;;;;6.85;5.05;;;;;;;2.57;80.39;100257.45;1738256;81;21291;-48
2021/01/27 07:32:10;;;;;;;7.08;5.12;;;;;;;2.56;80.39;100269.85;1733986;82;21169;-50
2021/01/27 07:34:59;;;;;;;7.95;5.87;;;;;;;2.58;80.48;100272.00;1730091;82;21113;-51
2021/01/27 07:37:57;;;;;;;8.45;5.75;;;;;;;2.58;80.51;100269.42;1734397;82;21176;-50
2021/01/27 07:40:47;;;;;;;5.83;5.08;;;;;;;2.56;80.54;100272.42;1738461;82;21144;-55
2021/01/27 07:43:25;;;;;;;7.45;5.65;;;;;;;2.58;80.40;100272.00;1733428;82;21587;-51
2021/01/27 07:45:56;;;;;;;7.15;6.22;;;;;;;2.60;80.38;100286.98;1738080;82;21157;-51
2021/01/27 07:48:47;;;;;;;6.53;5.55;;;;;;;2.61;80.39;100272.02;1738049;82;21172;-51
2021/01/27 07:51:40;;;;;;;6.53;4.80;;;;;;;2.62;80.31;100280.59;1737876;82;21163;-50
2021/01/27 07:54:26;;;;;;;5.95;5.08;;;;;;;2.63;80.28;100280.59;1651422;85;21682;-51
2021/01/27 07:57:00;;;;;;;7.87;5.83;;;;;;;2.64;80.34;100282.28;1655821;86;21227;-49
2021/01/27 07:59:36;;;;;;;7.87;5.15;;;;;;;2.63;80.37;100285.72;1658708;86;21191;-52
2021/01/27 08:02:21;;;;;;;5.12;4.35;;;;;;;2.63;80.25;100289.99;1655683;86;21648;-49
2021/01/27 08:05:02;;;;;;;8.18;5.55;;;;;;;2.66;80.28;100276.72;1811980;79;23105;-46
2021/01/27 08:07:34;;;;;;;6.25;4.83;;;;;;;2.60;80.25;100267.72;1783116;80;21144;-47
2021/01/27 08:10:26;;;;;;;6.33;5.12;;;;;;;2.60;80.29;100277.16;1786277;80;21592;-48
2021/01/27 08:13:01;;;;;;;6.67;4.90;;;;;;;2.61;80.28;100277.16;1768969;80;21608;-49
2021/01/27 08:15:41;;;;;;;7.45;4.80;;;;;;;2.62;80.36;100273.72;1745459;81;21319;-51
2021/01/27 08:18:18;;;;;;;7.00;4.80;;;;;;;2.64;80.34;100267.33;1739835;81;21158;-48
2021/01/27 08:20:47;;;;;;;6.33;4.47;;;;;;;2.63;80.30;100262.61;1746744;81;21184;-49
2021/01/27 08:23:33;;;;;;;7.50;5.12;;;;;;;2.64;80.33;100277.14;1707419;83;21731;-49
2021/01/27 08:26:05;;;;;;;8.10;5.55;;;;;;;2.62;80.48;100268.58;1734972;82;21165;-46
2021/01/27 08:28:42;;;;;;;8.18;5.15;;;;;;;2.61;80.53;100269.45;1721024;82;21163;-48
2021/01/27 08:31:17;;;;;;;6.15;4.50;;;;;;;2.64;80.39;100266.04;1725056;82;21298;-48
2021/01/27 08:33:54;;;;;;;6.40;4.75;;;;;;;2.64;80.46;100264.30;1724021;82;21337;-50
2021/01/27 08:36:30;;;;;;;6.20;4.42;;;;;;;2.59;80.71;100260.88;1729540;82;21207;-53
2021/01/27 08:39:07;;;;;;;5.95;4.37;;;;;;;2.61;80.80;100264.31;1732580;82;21153;-50
2021/01/27 08:41:55;;;;;;;8.10;4.78;;;;;;;2.66;80.77;100256.63;1769504;79;22709;-49
2021/01/27 08:44:40;;;;;;;8.03;4.78;;;;;;;2.61;80.74;100249.32;1736672;82;21150;-53
2021/01/27 08:47:37;;;;;;;6.67;4.85;;;;;;;2.62;80.68;100255.73;1737536;82;21149;-48
2021/01/27 08:50:12;;;;;;;6.75;5.22;;;;;;;2.62;80.71;100245.47;1739511;82;21211;-54
2021/01/27 08:52:41;;;;;;;7.83;5.37;;;;;;;2.63;80.71;100256.19;1664802;84;21324;-48
2021/01/27 08:55:34;;;;;;;8.65;5.45;;;;;;;2.63;80.61;100247.20;1657058;86;21164;-47
2021/01/27 08:58:40;;;;;;;6.53;4.50;;;;;;;2.62;80.65;100246.75;1665000;86;21238;-49
2021/01/27 09:01:29;;;;;;;7.10;5.30;;;;;;;2.63;80.71;100237.34;1661634;86;21529;-54
2021/01/27 09:04:00;;;;;;;7.00;5.60;;;;;;;2.64;80.83;100236.05;1665788;84;21323;-50
2021/01/27 09:06:47;;;;;;;6.72;5.20;;;;;;;2.66;80.69;100243.33;1661068;86;21167;-50
2021/01/27 09:09:26;;;;;;;5.70;4.95;;;;;;;2.67;80.64;100230.06;1652975;86;21237;-48
2021/01/27 09:12:07;;;;;;;7.78;5.22;;;;;;;2.66;80.49;100224.06;1657642;86;21322;-48
2021/01/27 09:14:35;;;;;;;7.10;5.65;;;;;;;2.67;80.59;100200.11;1659354;86;21167;-49
2021/01/27 09:17:05;;;;;;;6.47;5.17;;;;;;;2.67;80.67;100188.97;1657597;86;21143;-55
2021/01/27 09:19:36;;;;;;;8.25;5.35;;;;;;;2.65;80.75;100203.11;1656376;85;21222;-52
2021/01/27 09:22:09;;;;;;;6.53;5.17;;;;;;;2.74;80.29;100200.52;1659755;86;21608;-49
2021/01/27 09:24:43;;;;;;;7.42;5.62;;;;;;;2.76;80.26;100196.70;1660958;86;21167;-49
2021/01/27 09:27:20;;;;;;;6.97;5.17;;;;;;;2.74;80.18;100188.97;1660842;86;21131;-50
2021/01/27 09:30:08;;;;;;;8.15;5.03;;;;;;;2.79;80.23;100189.84;1844935;77;23537;-51
2021/01/27 09:32:38;;;;;;;8.58;5.20;;;;;;;2.73;80.22;100182.13;1733855;82;21332;-50
2021/01/27 09:35:20;;;;;;;6.85;5.47;;;;;;;2.75;80.32;100178.27;1709046;84;21171;-47
2021/01/27 09:38:11;;;;;;;8.93;5.92;;;;;;;2.77;80.41;100174.85;1731793;82;21167;-48
2021/01/27 09:40:43;;;;;;;7.30;5.80;;;;;;;2.80;80.22;100172.30;1726451;83;21214;-45
2021/01/27 09:43:20;;;;;;;6.20;5.30;;;;;;;2.88;80.29;100177.01;1810100;79;22971;-46
2021/01/27 09:45:50;;;;;;;8.63;5.35;;;;;;;2.85;80.34;100184.70;1783917;80;21155;-45
2021/01/27 09:48:21;;;;;;;5.60;4.95;;;;;;;2.86;80.19;100176.16;1777290;80;21143;-49
2021/01/27 09:50:55;;;;;;;7.08;5.28;;;;;;;2.89;79.94;100159.44;1778354;80;21155;-45
2021/01/27 09:53:28;;;;;;;8.38;6.03;;;;;;;2.89;79.69;100147.87;1766227;80;21117;-46
2021/01/27 09:55:56;;;;;;;8.98;5.90;;;;;;;2.86;79.50;100142.75;1750532;80;21180;-45
2021/01/27 09:58:25;;;;;;;8.08;5.90;;;;;;;2.83;79.60;100146.59;1780264;80;21302;-53
2021/01/27 10:01:03;;;;;;;6.85;5.80;;;;;;;2.81;79.44;100140.59;1777370;80;21231;-45
2021/01/27 10:03:40;;;;;;;6.95;6.03;;;;;;;2.80;79.38;100143.17;1699338;84;21189;-44
2021/01/27 10:06:36;;;;;;;9.55;6.10;;;;;;;2.77;79.44;100129.89;1697184;84;21265;-45
2021/01/27 10:09:09;;;;;;;7.78;5.67;;;;;;;2.76;79.43;100141.02;1690729;83;21989;-46
2021/01/27 10:11:43;;;;;;;8.50;5.83;;;;;;;2.79;79.34;100134.61;1767775;79;23105;-45
2021/01/27 10:14:17;;;;;;;9.55;5.67;;;;;;;2.76;79.49;100144.86;1741072;82;21140;-48
2021/01/27 10:17:00;;;;;;;6.47;4.92;;;;;;;2.74;79.41;100126.48;1740447;82;21113;-45
2021/01/27 10:19:50;;;;;;;6.22;5.03;;;;;;;2.73;79.47;100123.05;1741013;80;21572;-45
2021/01/27 10:22:26;;;;;;;7.12;4.92;;;;;;;2.74;79.44;100115.75;1741045;82;21710;-44
2021/01/27 10:24:59;;;;;;;5.85;5.10;;;;;;;2.74;79.53;100108.05;1740961;82;21188;-47
2021/01/27 10:27:38;;;;;;;7.40;5.70;;;;;;;2.76;79.50;100106.78;1741050;82;21568;-45
2021/01/27 10:30:20;;;;;;;8.80;5.80;;;;;;;2.77;79.55;100085.36;1740848;82;21152;-45
2021/01/27 10:32:48;;;;;;;7.97;6.15;;;;;;;2.77;79.48;100087.51;1740936;82;21168;-45
2021/01/27 10:35:26;;;;;;;9.75;6.10;;;;;;;2.76;79.47;100087.06;1739168;82;21125;-44
2021/01/27 10:38:08;;;;;;;7.87;6.28;;;;;;;2.78;79.39;100081.95;1738076;81;21306;-45
2021/01/27 10:40:36;;;;;;;6.97;5.05;;;;;;;2.75;79.44;100081.52;1738800;82;21116;-45
2021/01/27 10:43:15;;;;;;;5.92;4.55;;;;;;;2.77;79.42;100061.81;1732878;82;21129;-44
2021/01/27 10:45:44;;;;;;;6.62;5.35;;;;;;;2.77;79.24;100066.95;1703689;83;21180;-44
2021/01/27 10:48:25;;;;;;;7.60;5.40;;;;;;;2.97;78.66;100058.77;1677084;83;21216;-44
2021/01/27 10:51:03;;;;;;;6.75;5.37;;;;;;;2.94;78.60;100048.52;1705786;83;21314;-44
2021/01/27 10:53:45;;;;;;;9.18;5.37;;;;;;;2.94;78.54;100053.66;1703620;83;21156;-44
2021/01/27 10:56:15;;;;;;;5.97;4.87;;;;;;;3.05;78.21;100053.64;1703722;83;21354;-44
2021/01/27 10:58:43;;;;;;;9.88;6.20;;;;;;;3.03;77.92;100061.78;1702638;83;21596;-44
2021/01/27 11:01:11;;;;;;;8.58;5.85;;;;;;;3.01;77.93;100054.05;1700570;83;21337;-44
2021/01/27 11:03:43;;;;;;;8.43;5.90;;;;;;;2.94;78.18;100035.67;1700448;83;21350;-43
2021/01/27 11:06:12;;;;;;;7.70;5.15;;;;;;;2.95;78.08;100032.22;1701699;83;21211;-44
2021/01/27 11:08:42;;;;;;;8.00;5.47;;;;;;;3.01;77.83;100027.52;1703527;83;21144;-44
2021/01/27 11:11:11;;;;;;;7.90;5.58;;;;;;;2.96;77.95;100031.38;1706426;83;21297;-44
2021/01/27 11:13:40;;;;;;;9.33;5.35;;;;;;;2.94;78.03;100035.67;1715318;83;21738;-45
2021/01/27 11:16:10;;;;;;;6.40;5.30;;;;;;;2.96;78.18;100042.95;1714082;83;21655;-49
2021/01/27 11:18:39;;;;;;;6.87;5.28;;;;;;;2.99;78.08;100044.20;1714129;83;21168;-45
2021/01/27 11:21:07;;;;;;;6.15;4.90;;;;;;;3.00;78.06;100033.08;1713825;83;21302;-43
2021/01/27 11:23:36;;;;;;;7.78;5.25;;;;;;;2.99;78.01;100040.35;1733787;81;21318;-44
2021/01/27 11:26:05;;;;;;;5.83;4.62;;;;;;;2.99;78.11;100032.64;1742258;81;21128;-44
2021/01/27 11:28:33;;;;;;;6.05;5.15;;;;;;;3.01;78.08;100037.34;1748801;81;21132;-48
2021/01/27 11:31:02;;;;;;;7.30;5.00;;;;;;;3.01;78.13;100048.91;1748688;81;21715;-44
2021/01/27 11:33:31;;;;;;;5.08;4.55;;;;;;;2.99;78.01;100044.20;1745660;81;21134;-47
2021/01/27 11:35:59;;;;;;;5.25;4.47;;;;;;;3.00;77.95;100032.22;1748077;81;21187;-44
2021/01/27 11:38:28;;;;;;;7.00;5.12;;;;;;;3.00;78.00;100038.64;1743836;81;21334;-45
2021/01/27 11:40:56;;;;;;;5.67;4.30;;;;;;;2.98;77.88;100014.24;1750546;81;21326;-44
2021/01/27 11:43:25;;;;;;;6.40;4.80;;;;;;;3.01;77.85;100009.08;1741597;81;21149;-43
2021/01/27 11:45:53;;;;;;;5.28;4.37;;;;;;;3.02;77.82;100006.95;1745372;81;21152;-51
2021/01/27 11:48:24;;;;;;;5.10;4.30;;;;;;;3.10;77.52;100002.63;1741696;81;21148;-44
2021/01/27 11:50:53;;;;;;;7.35;5.37;;;;;;;3.10;77.54;99998.78;1746873;81;21285;-44
2021/01/27 11:53:23;;;;;;;10.80;4.45;;;;;;;3.11;77.42;99997.90;1742277;81;21278;-44
2021/01/27 11:55:51;;;;;;;6.47;4.80;;;;;;;3.12;77.33;99986.77;1749156;81;21548;-44
2021/01/27 11:58:20;;;;;;;5.87;4.85;;;;;;;3.12;77.29;99983.34;1747867;81;21642;-44
2021/01/27 12:00:48;;;;;;;9.60;5.33;;;;;;;3.11;77.27;99958.06;1746105;81;21294;-49
2021/01/27 12:03:17;;;;;;;7.37;4.17;;;;;;;3.15;77.07;99955.90;1745053;81;21152;-43
2021/01/27 12:05:45;;;;;;;5.92;4.70;;;;;;;3.15;76.88;99946.90;1744615;81;21159;-44
2021/01/27 12:08:16;;;;;;;5.95;4.83;;;;;;;3.12;76.91;99967.92;1749810;81;21664;-42
2021/01/27 12:10:45;;;;;;;6.30;4.80;;;;;;;3.05;77.22;99958.09;1746307;81;21168;-44
2021/01/27 12:13:13;;;;;;;6.12;4.42;;;;;;;3.03;77.14;99977.80;1731278;82;21593;-47
2021/01/27 12:15:45;;;;;;;6.55;4.97;;;;;;;3.06;77.18;99973.95;1733765;82;21151;-41
2021/01/27 12:18:14;;;;;;;6.62;4.75;;;;;;;3.08;77.16;99982.51;1739848;82;21283;-45
2021/01/27 12:20:46;;;;;;;7.37;4.83;;;;;;;3.10;77.07;99967.07;1741540;82;21196;-43
2021/01/27 12:23:14;;;;;;;5.53;4.53;;;;;;;3.08;77.02;99964.52;1741155;82;21149;-44